sensor_id;sensor_type;location;lat;lon;timestamp;P1;durP1;ratioP1;P2;durP2;ratioP2
417;SDS011;49;48.530;9.200;2022-12-07T00:01:06;14.13;;;9.30;;
417;SDS011;49;48.530;9.200;2022-12-07T00:03:35;15.37;;;8.97;;
417;SDS011;49;48.530;9.200;2022-12-07T00:06:03;13.00;;;9.20;;
417;SDS011;49;48.530;9.200;2022-12-07T00:08:32;16.63;;;10.10;;
417;SDS011;49;48.530;9.200;2022-12-07T00:11:02;11.83;;;8.10;;
417;SDS011;49;48.530;9.200;2022-12-07T00:13:29;10.70;;;8.30;;
417;SDS011;49;48.530;9.200;2022-12-07T00:15:59;10.70;;;7.20;;
417;SDS011;49;48.530;9.200;2022-12-07T00:18:27;9.93;;;7.80;;
417;SDS011;49;48.530;9.200;2022-12-07T00:20:58;14.70;;;8.53;;
417;SDS011;49;48.530;9.200;2022-12-07T00:23:26;12.47;;;8.20;;
417;SDS011;49;48.530;9.200;2022-12-07T00:25:53;32.47;;;13.60;;
417;SDS011;49;48.530;9.200;2022-12-07T00:28:22;25.73;;;11.93;;
417;SDS011;49;48.530;9.200;2022-12-07T00:30:49;9.37;;;7.03;;
417;SDS011;49;48.530;9.200;2022-12-07T00:33:16;10.90;;;6.57;;
417;SDS011;49;48.530;9.200;2022-12-07T00:35:42;9.03;;;6.23;;
417;SDS011;49;48.530;9.200;2022-12-07T00:38:09;17.23;;;7.50;;
417;SDS011;49;48.530;9.200;2022-12-07T00:40:36;82.80;;;25.20;;
417;SDS011;49;48.530;9.200;2022-12-07T00:43:03;104.53;;;27.70;;
417;SDS011;49;48.530;9.200;2022-12-07T00:45:31;59.73;;;16.43;;
417;SDS011;49;48.530;9.200;2022-12-07T00:47:58;14.67;;;8.30;;
417;SDS011;49;48.530;9.200;2022-12-07T00:50:25;13.63;;;7.77;;
417;SDS011;49;48.530;9.200;2022-12-07T00:52:52;11.33;;;7.90;;
417;SDS011;49;48.530;9.200;2022-12-07T00:55:19;12.20;;;7.17;;
417;SDS011;49;48.530;9.200;2022-12-07T00:57:46;10.57;;;7.00;;
417;SDS011;49;48.530;9.200;2022-12-07T01:00:13;8.90;;;6.90;;
417;SDS011;49;48.530;9.200;2022-12-07T01:02:42;10.13;;;6.93;;
417;SDS011;49;48.530;9.200;2022-12-07T01:05:09;11.10;;;7.80;;
417;SDS011;49;48.530;9.200;2022-12-07T01:07:36;11.63;;;7.83;;
417;SDS011;49;48.530;9.200;2022-12-07T01:10:03;10.20;;;7.00;;
417;SDS011;49;48.530;9.200;2022-12-07T01:12:31;10.33;;;7.50;;
417;SDS011;49;48.530;9.200;2022-12-07T01:14:57;12.87;;;7.93;;
417;SDS011;49;48.530;9.200;2022-12-07T01:17:24;9.77;;;6.80;;
417;SDS011;49;48.530;9.200;2022-12-07T01:19:53;15.27;;;7.77;;
417;SDS011;49;48.530;9.200;2022-12-07T01:22:19;13.77;;;7.47;;
417;SDS011;49;48.530;9.200;2022-12-07T01:24:46;12.23;;;7.77;;
417;SDS011;49;48.530;9.200;2022-12-07T01:27:14;15.23;;;7.77;;
417;SDS011;49;48.530;9.200;2022-12-07T01:29:41;12.20;;;7.87;;
417;SDS011;49;48.530;9.200;2022-12-07T01:32:08;12.10;;;8.00;;
417;SDS011;49;48.530;9.200;2022-12-07T01:34:34;16.53;;;8.30;;
417;SDS011;49;48.530;9.200;2022-12-07T01:37:03;11.17;;;8.40;;
417;SDS011;49;48.530;9.200;2022-12-07T01:39:30;12.63;;;8.00;;
417;SDS011;49;48.530;9.200;2022-12-07T01:41:57;8.00;;;5.60;;
417;SDS011;49;48.530;9.200;2022-12-07T01:44:24;10.37;;;7.33;;
417;SDS011;49;48.530;9.200;2022-12-07T01:46:52;9.43;;;7.03;;
417;SDS011;49;48.530;9.200;2022-12-07T01:49:22;10.40;;;6.30;;
417;SDS011;49;48.530;9.200;2022-12-07T01:51:58;10.83;;;7.20;;
417;SDS011;49;48.530;9.200;2022-12-07T01:54:32;12.37;;;7.23;;
417;SDS011;49;48.530;9.200;2022-12-07T01:57:00;11.03;;;7.37;;
417;SDS011;49;48.530;9.200;2022-12-07T01:59:29;10.00;;;6.57;;
417;SDS011;49;48.530;9.200;2022-12-07T02:01:56;10.70;;;7.20;;
417;SDS011;49;48.530;9.200;2022-12-07T02:04:23;10.70;;;7.00;;
417;SDS011;49;48.530;9.200;2022-12-07T02:06:50;10.13;;;6.50;;
417;SDS011;49;48.530;9.200;2022-12-07T02:09:20;11.23;;;6.83;;
417;SDS011;49;48.530;9.200;2022-12-07T02:11:47;9.20;;;6.27;;
417;SDS011;49;48.530;9.200;2022-12-07T02:14:15;11.77;;;7.80;;
417;SDS011;49;48.530;9.200;2022-12-07T02:16:45;14.03;;;7.07;;
417;SDS011;49;48.530;9.200;2022-12-07T02:19:30;12.80;;;7.00;;
417;SDS011;49;48.530;9.200;2022-12-07T02:22:27;12.17;;;7.57;;
417;SDS011;49;48.530;9.200;2022-12-07T02:25:18;9.87;;;7.10;;
417;SDS011;49;48.530;9.200;2022-12-07T02:27:56;10.80;;;7.40;;
417;SDS011;49;48.530;9.200;2022-12-07T02:30:31;11.10;;;6.20;;
417;SDS011;49;48.530;9.200;2022-12-07T02:33:03;13.37;;;7.83;;
417;SDS011;49;48.530;9.200;2022-12-07T02:35:33;18.50;;;9.53;;
417;SDS011;49;48.530;9.200;2022-12-07T02:38:08;12.63;;;7.00;;
417;SDS011;49;48.530;9.200;2022-12-07T02:40:41;12.70;;;7.70;;
417;SDS011;49;48.530;9.200;2022-12-07T02:43:13;14.47;;;9.60;;
417;SDS011;49;48.530;9.200;2022-12-07T02:45:46;10.00;;;7.17;;
417;SDS011;49;48.530;9.200;2022-12-07T02:48:16;9.67;;;7.17;;
417;SDS011;49;48.530;9.200;2022-12-07T02:50:45;10.20;;;7.93;;
417;SDS011;49;48.530;9.200;2022-12-07T02:53:30;12.90;;;8.00;;
417;SDS011;49;48.530;9.200;2022-12-07T02:55:58;15.07;;;7.80;;
417;SDS011;49;48.530;9.200;2022-12-07T02:58:32;11.67;;;7.37;;
417;SDS011;49;48.530;9.200;2022-12-07T03:01:11;11.10;;;6.90;;
417;SDS011;49;48.530;9.200;2022-12-07T03:03:48;17.93;;;8.77;;
417;SDS011;49;48.530;9.200;2022-12-07T03:06:22;14.00;;;7.63;;
417;SDS011;49;48.530;9.200;2022-12-07T03:08:57;13.13;;;7.40;;
417;SDS011;49;48.530;9.200;2022-12-07T03:11:34;13.73;;;8.17;;
417;SDS011;49;48.530;9.200;2022-12-07T03:14:09;9.33;;;6.80;;
417;SDS011;49;48.530;9.200;2022-12-07T03:16:45;22.10;;;6.13;;
417;SDS011;49;48.530;9.200;2022-12-07T03:19:16;12.27;;;8.47;;
417;SDS011;49;48.530;9.200;2022-12-07T03:21:46;12.30;;;8.37;;
417;SDS011;49;48.530;9.200;2022-12-07T03:24:18;12.20;;;7.30;;
417;SDS011;49;48.530;9.200;2022-12-07T03:26:48;10.00;;;8.33;;
417;SDS011;49;48.530;9.200;2022-12-07T03:29:19;13.10;;;8.57;;
417;SDS011;49;48.530;9.200;2022-12-07T03:31:52;15.73;;;8.73;;
417;SDS011;49;48.530;9.200;2022-12-07T03:34:24;13.33;;;8.97;;
417;SDS011;49;48.530;9.200;2022-12-07T03:36:56;16.60;;;8.80;;
417;SDS011;49;48.530;9.200;2022-12-07T03:39:29;12.67;;;8.50;;
417;SDS011;49;48.530;9.200;2022-12-07T03:41:59;11.17;;;8.10;;
417;SDS011;49;48.530;9.200;2022-12-07T03:44:29;13.40;;;9.60;;
417;SDS011;49;48.530;9.200;2022-12-07T03:46:59;14.10;;;9.53;;
417;SDS011;49;48.530;9.200;2022-12-07T03:49:30;19.77;;;9.57;;
417;SDS011;49;48.530;9.200;2022-12-07T03:52:07;14.30;;;9.20;;
417;SDS011;49;48.530;9.200;2022-12-07T03:54:39;16.73;;;9.47;;
417;SDS011;49;48.530;9.200;2022-12-07T03:57:09;13.70;;;10.23;;
417;SDS011;49;48.530;9.200;2022-12-07T03:59:38;13.97;;;8.97;;
417;SDS011;49;48.530;9.200;2022-12-07T04:02:08;13.10;;;9.43;;
417;SDS011;49;48.530;9.200;2022-12-07T04:04:39;13.30;;;9.00;;
417;SDS011;49;48.530;9.200;2022-12-07T04:07:06;16.93;;;9.40;;
417;SDS011;49;48.530;9.200;2022-12-07T04:09:33;17.17;;;10.40;;
417;SDS011;49;48.530;9.200;2022-12-07T04:12:00;16.17;;;11.10;;
417;SDS011;49;48.530;9.200;2022-12-07T04:14:27;13.97;;;9.77;;
417;SDS011;49;48.530;9.200;2022-12-07T04:16:55;16.57;;;10.80;;
417;SDS011;49;48.530;9.200;2022-12-07T04:19:25;14.47;;;9.67;;
417;SDS011;49;48.530;9.200;2022-12-07T04:21:54;13.87;;;10.23;;
417;SDS011;49;48.530;9.200;2022-12-07T04:24:21;13.67;;;9.40;;
417;SDS011;49;48.530;9.200;2022-12-07T04:26:48;14.77;;;10.10;;
417;SDS011;49;48.530;9.200;2022-12-07T04:29:15;12.60;;;9.13;;
417;SDS011;49;48.530;9.200;2022-12-07T04:31:43;13.70;;;10.00;;
417;SDS011;49;48.530;9.200;2022-12-07T04:34:10;16.93;;;11.23;;
417;SDS011;49;48.530;9.200;2022-12-07T04:36:39;16.27;;;10.90;;
417;SDS011;49;48.530;9.200;2022-12-07T04:39:07;16.40;;;11.07;;
417;SDS011;49;48.530;9.200;2022-12-07T04:41:39;14.77;;;10.73;;
417;SDS011;49;48.530;9.200;2022-12-07T04:44:06;15.77;;;10.57;;
417;SDS011;49;48.530;9.200;2022-12-07T04:46:33;14.87;;;10.60;;
417;SDS011;49;48.530;9.200;2022-12-07T04:49:00;15.43;;;10.30;;
417;SDS011;49;48.530;9.200;2022-12-07T04:51:28;18.00;;;10.37;;
417;SDS011;49;48.530;9.200;2022-12-07T04:53:57;17.30;;;13.40;;
417;SDS011;49;48.530;9.200;2022-12-07T04:56:24;18.33;;;10.73;;
417;SDS011;49;48.530;9.200;2022-12-07T04:58:52;14.13;;;9.97;;
417;SDS011;49;48.530;9.200;2022-12-07T05:01:21;17.00;;;11.30;;
417;SDS011;49;48.530;9.200;2022-12-07T05:03:48;19.10;;;12.17;;
417;SDS011;49;48.530;9.200;2022-12-07T05:06:16;14.70;;;10.47;;
417;SDS011;49;48.530;9.200;2022-12-07T05:08:43;13.20;;;9.63;;
417;SDS011;49;48.530;9.200;2022-12-07T05:11:11;14.87;;;11.50;;
417;SDS011;49;48.530;9.200;2022-12-07T05:14:00;15.03;;;10.93;;
417;SDS011;49;48.530;9.200;2022-12-07T05:16:27;14.73;;;9.93;;
417;SDS011;49;48.530;9.200;2022-12-07T05:18:59;15.13;;;10.93;;
417;SDS011;49;48.530;9.200;2022-12-07T05:21:26;14.27;;;8.70;;
417;SDS011;49;48.530;9.200;2022-12-07T05:23:53;13.37;;;10.33;;
417;SDS011;49;48.530;9.200;2022-12-07T05:26:22;17.70;;;10.80;;
417;SDS011;49;48.530;9.200;2022-12-07T05:28:52;16.73;;;9.77;;
417;SDS011;49;48.530;9.200;2022-12-07T05:31:20;14.67;;;9.60;;
417;SDS011;49;48.530;9.200;2022-12-07T05:33:47;13.90;;;9.50;;
417;SDS011;49;48.530;9.200;2022-12-07T05:36:14;15.90;;;10.63;;
417;SDS011;49;48.530;9.200;2022-12-07T05:38:41;13.70;;;9.90;;
417;SDS011;49;48.530;9.200;2022-12-07T05:41:08;17.03;;;9.50;;
417;SDS011;49;48.530;9.200;2022-12-07T05:43:55;12.60;;;9.23;;
417;SDS011;49;48.530;9.200;2022-12-07T05:46:22;12.23;;;8.30;;
417;SDS011;49;48.530;9.200;2022-12-07T05:48:49;14.87;;;10.80;;
417;SDS011;49;48.530;9.200;2022-12-07T05:51:17;10.47;;;8.20;;
417;SDS011;49;48.530;9.200;2022-12-07T05:53:44;11.30;;;8.20;;
417;SDS011;49;48.530;9.200;2022-12-07T05:56:11;14.37;;;10.93;;
417;SDS011;49;48.530;9.200;2022-12-07T05:58:38;18.67;;;12.97;;
417;SDS011;49;48.530;9.200;2022-12-07T06:01:24;21.57;;;11.73;;
417;SDS011;49;48.530;9.200;2022-12-07T06:03:51;37.17;;;13.00;;
417;SDS011;49;48.530;9.200;2022-12-07T06:06:18;22.83;;;12.17;;
417;SDS011;49;48.530;9.200;2022-12-07T06:08:45;13.93;;;10.50;;
417;SDS011;49;48.530;9.200;2022-12-07T06:11:12;17.13;;;11.97;;
417;SDS011;49;48.530;9.200;2022-12-07T06:13:56;17.70;;;12.30;;
417;SDS011;49;48.530;9.200;2022-12-07T06:16:25;20.50;;;12.67;;
417;SDS011;49;48.530;9.200;2022-12-07T06:18:52;17.93;;;11.87;;
417;SDS011;49;48.530;9.200;2022-12-07T06:21:19;13.93;;;10.50;;
417;SDS011;49;48.530;9.200;2022-12-07T06:23:46;15.47;;;9.70;;
417;SDS011;49;48.530;9.200;2022-12-07T06:26:13;17.17;;;11.30;;
417;SDS011;49;48.530;9.200;2022-12-07T06:28:40;16.20;;;11.40;;
417;SDS011;49;48.530;9.200;2022-12-07T06:31:07;21.97;;;11.20;;
417;SDS011;49;48.530;9.200;2022-12-07T06:33:35;12.00;;;8.90;;
417;SDS011;49;48.530;9.200;2022-12-07T06:36:02;15.00;;;9.87;;
417;SDS011;49;48.530;9.200;2022-12-07T06:38:29;17.20;;;11.83;;
417;SDS011;49;48.530;9.200;2022-12-07T06:40:57;15.53;;;10.90;;
417;SDS011;49;48.530;9.200;2022-12-07T06:43:23;14.67;;;11.07;;
417;SDS011;49;48.530;9.200;2022-12-07T06:45:52;13.67;;;10.07;;
417;SDS011;49;48.530;9.200;2022-12-07T06:48:19;15.10;;;9.90;;
417;SDS011;49;48.530;9.200;2022-12-07T06:50:47;15.23;;;11.43;;
417;SDS011;49;48.530;9.200;2022-12-07T06:53:14;14.93;;;10.53;;
417;SDS011;49;48.530;9.200;2022-12-07T06:55:41;10.70;;;7.23;;
417;SDS011;49;48.530;9.200;2022-12-07T06:58:08;12.80;;;9.00;;
417;SDS011;49;48.530;9.200;2022-12-07T07:00:35;16.53;;;10.10;;
417;SDS011;49;48.530;9.200;2022-12-07T07:03:02;17.50;;;10.27;;
417;SDS011;49;48.530;9.200;2022-12-07T07:05:29;16.27;;;9.87;;
417;SDS011;49;48.530;9.200;2022-12-07T07:07:57;18.27;;;10.00;;
417;SDS011;49;48.530;9.200;2022-12-07T07:10:24;17.17;;;11.53;;
417;SDS011;49;48.530;9.200;2022-12-07T07:12:51;18.47;;;12.13;;
417;SDS011;49;48.530;9.200;2022-12-07T07:15:18;24.93;;;14.60;;
417;SDS011;49;48.530;9.200;2022-12-07T07:17:45;18.70;;;12.63;;
417;SDS011;49;48.530;9.200;2022-12-07T07:20:12;18.70;;;11.60;;
417;SDS011;49;48.530;9.200;2022-12-07T07:22:39;18.13;;;12.10;;
417;SDS011;49;48.530;9.200;2022-12-07T07:25:08;12.07;;;8.20;;
417;SDS011;49;48.530;9.200;2022-12-07T07:27:34;16.93;;;12.63;;
417;SDS011;49;48.530;9.200;2022-12-07T07:30:02;16.83;;;12.30;;
417;SDS011;49;48.530;9.200;2022-12-07T07:32:29;17.53;;;11.70;;
417;SDS011;49;48.530;9.200;2022-12-07T07:34:56;17.97;;;12.43;;
417;SDS011;49;48.530;9.200;2022-12-07T07:37:23;19.20;;;13.37;;
417;SDS011;49;48.530;9.200;2022-12-07T07:39:50;19.77;;;13.33;;
417;SDS011;49;48.530;9.200;2022-12-07T07:42:18;17.30;;;13.10;;
417;SDS011;49;48.530;9.200;2022-12-07T07:44:45;20.27;;;12.50;;
417;SDS011;49;48.530;9.200;2022-12-07T07:47:12;20.40;;;13.00;;
417;SDS011;49;48.530;9.200;2022-12-07T07:49:39;20.43;;;13.57;;
417;SDS011;49;48.530;9.200;2022-12-07T07:52:06;16.80;;;11.13;;
417;SDS011;49;48.530;9.200;2022-12-07T07:54:33;18.70;;;12.77;;
417;SDS011;49;48.530;9.200;2022-12-07T07:57:00;18.30;;;11.83;;
417;SDS011;49;48.530;9.200;2022-12-07T07:59:30;16.33;;;11.60;;
417;SDS011;49;48.530;9.200;2022-12-07T08:02:00;15.07;;;11.40;;
417;SDS011;49;48.530;9.200;2022-12-07T08:04:27;16.10;;;10.80;;
417;SDS011;49;48.530;9.200;2022-12-07T08:06:54;19.00;;;10.67;;
417;SDS011;49;48.530;9.200;2022-12-07T08:09:21;21.33;;;11.20;;
417;SDS011;49;48.530;9.200;2022-12-07T08:11:48;18.00;;;11.53;;
417;SDS011;49;48.530;9.200;2022-12-07T08:14:15;19.90;;;11.10;;
417;SDS011;49;48.530;9.200;2022-12-07T08:16:43;15.07;;;10.70;;
417;SDS011;49;48.530;9.200;2022-12-07T08:19:10;15.30;;;10.33;;
417;SDS011;49;48.530;9.200;2022-12-07T08:21:37;20.00;;;13.30;;
417;SDS011;49;48.530;9.200;2022-12-07T08:24:04;15.77;;;10.70;;
417;SDS011;49;48.530;9.200;2022-12-07T08:26:31;18.20;;;10.67;;
417;SDS011;49;48.530;9.200;2022-12-07T08:28:58;28.90;;;12.37;;
417;SDS011;49;48.530;9.200;2022-12-07T08:31:25;19.67;;;11.47;;
417;SDS011;49;48.530;9.200;2022-12-07T08:33:54;17.53;;;11.30;;
417;SDS011;49;48.530;9.200;2022-12-07T08:36:22;13.93;;;9.97;;
417;SDS011;49;48.530;9.200;2022-12-07T08:38:49;18.80;;;11.60;;
417;SDS011;49;48.530;9.200;2022-12-07T08:41:16;21.70;;;11.40;;
417;SDS011;49;48.530;9.200;2022-12-07T08:43:43;18.07;;;11.70;;
417;SDS011;49;48.530;9.200;2022-12-07T08:46:12;18.40;;;12.20;;
417;SDS011;49;48.530;9.200;2022-12-07T08:48:44;16.23;;;10.83;;
417;SDS011;49;48.530;9.200;2022-12-07T08:51:17;16.90;;;11.37;;
417;SDS011;49;48.530;9.200;2022-12-07T08:53:44;13.47;;;10.57;;
417;SDS011;49;48.530;9.200;2022-12-07T08:56:12;21.17;;;11.30;;
417;SDS011;49;48.530;9.200;2022-12-07T08:58:39;17.97;;;10.30;;
417;SDS011;49;48.530;9.200;2022-12-07T09:01:07;24.50;;;10.33;;
417;SDS011;49;48.530;9.200;2022-12-07T09:03:34;16.70;;;10.97;;
417;SDS011;49;48.530;9.200;2022-12-07T09:06:01;15.13;;;10.20;;
417;SDS011;49;48.530;9.200;2022-12-07T09:08:32;16.30;;;11.10;;
417;SDS011;49;48.530;9.200;2022-12-07T09:11:02;16.80;;;10.80;;
417;SDS011;49;48.530;9.200;2022-12-07T09:13:29;14.40;;;9.43;;
417;SDS011;49;48.530;9.200;2022-12-07T09:15:56;15.30;;;10.07;;
417;SDS011;49;48.530;9.200;2022-12-07T09:18:23;13.73;;;10.10;;
417;SDS011;49;48.530;9.200;2022-12-07T09:20:50;14.73;;;9.60;;
417;SDS011;49;48.530;9.200;2022-12-07T09:23:17;13.93;;;10.47;;
417;SDS011;49;48.530;9.200;2022-12-07T09:25:45;14.50;;;10.30;;
417;SDS011;49;48.530;9.200;2022-12-07T09:28:12;18.43;;;10.87;;
417;SDS011;49;48.530;9.200;2022-12-07T09:30:44;12.63;;;9.50;;
417;SDS011;49;48.530;9.200;2022-12-07T09:33:12;13.60;;;9.87;;
417;SDS011;49;48.530;9.200;2022-12-07T09:35:43;15.77;;;9.50;;
417;SDS011;49;48.530;9.200;2022-12-07T09:38:11;18.13;;;10.10;;
417;SDS011;49;48.530;9.200;2022-12-07T09:40:38;16.00;;;9.87;;
417;SDS011;49;48.530;9.200;2022-12-07T09:43:12;15.80;;;10.43;;
417;SDS011;49;48.530;9.200;2022-12-07T09:45:41;41.60;;;21.47;;
417;SDS011;49;48.530;9.200;2022-12-07T09:48:11;21.60;;;11.37;;
417;SDS011;49;48.530;9.200;2022-12-07T09:50:44;19.10;;;10.70;;
417;SDS011;49;48.530;9.200;2022-12-07T09:53:13;15.20;;;10.17;;
417;SDS011;49;48.530;9.200;2022-12-07T09:55:42;17.13;;;10.43;;
417;SDS011;49;48.530;9.200;2022-12-07T09:58:13;15.30;;;10.83;;
417;SDS011;49;48.530;9.200;2022-12-07T10:00:46;14.40;;;9.63;;
417;SDS011;49;48.530;9.200;2022-12-07T10:03:13;16.90;;;10.63;;
417;SDS011;49;48.530;9.200;2022-12-07T10:05:41;16.47;;;9.67;;
417;SDS011;49;48.530;9.200;2022-12-07T10:08:11;16.80;;;10.60;;
417;SDS011;49;48.530;9.200;2022-12-07T10:10:40;13.77;;;8.83;;
417;SDS011;49;48.530;9.200;2022-12-07T10:13:08;12.40;;;8.63;;
417;SDS011;49;48.530;9.200;2022-12-07T10:18:25;11.33;;;8.40;;
417;SDS011;49;48.530;9.200;2022-12-07T10:21:00;13.40;;;8.73;;
417;SDS011;49;48.530;9.200;2022-12-07T10:23:39;13.53;;;8.40;;
417;SDS011;49;48.530;9.200;2022-12-07T10:29:04;14.97;;;9.13;;
417;SDS011;49;48.530;9.200;2022-12-07T10:31:43;12.00;;;8.43;;
417;SDS011;49;48.530;9.200;2022-12-07T10:34:15;12.77;;;8.63;;
417;SDS011;49;48.530;9.200;2022-12-07T10:36:49;16.87;;;9.90;;
417;SDS011;49;48.530;9.200;2022-12-07T10:39:17;12.00;;;8.27;;
417;SDS011;49;48.530;9.200;2022-12-07T10:41:54;15.70;;;9.10;;
417;SDS011;49;48.530;9.200;2022-12-07T10:44:23;10.23;;;7.23;;
417;SDS011;49;48.530;9.200;2022-12-07T10:47:09;11.53;;;8.20;;
417;SDS011;49;48.530;9.200;2022-12-07T10:52:52;14.10;;;9.10;;
417;SDS011;49;48.530;9.200;2022-12-07T10:55:39;14.60;;;8.83;;
417;SDS011;49;48.530;9.200;2022-12-07T10:58:21;15.93;;;6.87;;
417;SDS011;49;48.530;9.200;2022-12-07T11:01:00;12.80;;;8.10;;
417;SDS011;49;48.530;9.200;2022-12-07T11:03:47;9.37;;;7.33;;
417;SDS011;49;48.530;9.200;2022-12-07T11:06:26;9.60;;;7.13;;
417;SDS011;49;48.530;9.200;2022-12-07T11:09:04;10.27;;;6.70;;
417;SDS011;49;48.530;9.200;2022-12-07T11:11:53;10.57;;;8.07;;
417;SDS011;49;48.530;9.200;2022-12-07T11:14:28;11.83;;;7.60;;
417;SDS011;49;48.530;9.200;2022-12-07T11:17:02;11.13;;;8.33;;
417;SDS011;49;48.530;9.200;2022-12-07T11:19:46;14.23;;;7.60;;
417;SDS011;49;48.530;9.200;2022-12-07T11:22:27;10.80;;;7.70;;
417;SDS011;49;48.530;9.200;2022-12-07T11:25:13;11.93;;;6.80;;
417;SDS011;49;48.530;9.200;2022-12-07T11:27:52;25.30;;;10.20;;
417;SDS011;49;48.530;9.200;2022-12-07T11:30:27;16.43;;;7.83;;
417;SDS011;49;48.530;9.200;2022-12-07T11:33:06;13.97;;;8.30;;
417;SDS011;49;48.530;9.200;2022-12-07T11:35:45;9.70;;;6.63;;
417;SDS011;49;48.530;9.200;2022-12-07T11:38:30;10.40;;;6.53;;
417;SDS011;49;48.530;9.200;2022-12-07T11:41:04;11.27;;;8.27;;
417;SDS011;49;48.530;9.200;2022-12-07T11:43:42;9.80;;;6.90;;
417;SDS011;49;48.530;9.200;2022-12-07T11:46:21;11.30;;;7.57;;
417;SDS011;49;48.530;9.200;2022-12-07T11:48:53;12.80;;;6.70;;
417;SDS011;49;48.530;9.200;2022-12-07T11:51:25;11.53;;;7.03;;
417;SDS011;49;48.530;9.200;2022-12-07T11:53:58;9.80;;;6.87;;
417;SDS011;49;48.530;9.200;2022-12-07T11:56:29;12.93;;;6.73;;
417;SDS011;49;48.530;9.200;2022-12-07T11:59:02;11.47;;;7.13;;
417;SDS011;49;48.530;9.200;2022-12-07T12:01:40;9.73;;;7.50;;
417;SDS011;49;48.530;9.200;2022-12-07T12:04:18;10.40;;;7.33;;
417;SDS011;49;48.530;9.200;2022-12-07T12:06:56;13.40;;;7.30;;
417;SDS011;49;48.530;9.200;2022-12-07T12:09:24;12.23;;;7.97;;
417;SDS011;49;48.530;9.200;2022-12-07T12:12:02;9.67;;;6.60;;
417;SDS011;49;48.530;9.200;2022-12-07T12:14:44;11.40;;;7.70;;
417;SDS011;49;48.530;9.200;2022-12-07T12:20:20;12.87;;;7.23;;
417;SDS011;49;48.530;9.200;2022-12-07T12:22:53;10.27;;;7.47;;
417;SDS011;49;48.530;9.200;2022-12-07T12:25:27;13.40;;;7.60;;
417;SDS011;49;48.530;9.200;2022-12-07T12:27:57;9.17;;;6.53;;
417;SDS011;49;48.530;9.200;2022-12-07T12:30:32;9.30;;;6.30;;
417;SDS011;49;48.530;9.200;2022-12-07T12:33:03;10.13;;;6.27;;
417;SDS011;49;48.530;9.200;2022-12-07T12:35:33;8.37;;;5.60;;
417;SDS011;49;48.530;9.200;2022-12-07T12:38:25;9.10;;;6.30;;
417;SDS011;49;48.530;9.200;2022-12-07T12:40:56;11.17;;;7.40;;
417;SDS011;49;48.530;9.200;2022-12-07T12:58:29;8.70;;;6.33;;
417;SDS011;49;48.530;9.200;2022-12-07T13:04:14;11.37;;;7.40;;
417;SDS011;49;48.530;9.200;2022-12-07T13:07:02;11.83;;;7.67;;
417;SDS011;49;48.530;9.200;2022-12-07T13:09:29;9.47;;;6.40;;
417;SDS011;49;48.530;9.200;2022-12-07T13:12:01;8.43;;;6.10;;
417;SDS011;49;48.530;9.200;2022-12-07T13:14:53;19.20;;;9.63;;
417;SDS011;49;48.530;9.200;2022-12-07T13:23:27;12.87;;;7.07;;
417;SDS011;49;48.530;9.200;2022-12-07T13:26:00;10.37;;;7.03;;
417;SDS011;49;48.530;9.200;2022-12-07T13:28:37;12.10;;;7.40;;
417;SDS011;49;48.530;9.200;2022-12-07T13:31:19;13.33;;;7.80;;
417;SDS011;49;48.530;9.200;2022-12-07T13:34:00;13.50;;;7.33;;
417;SDS011;49;48.530;9.200;2022-12-07T13:36:30;10.73;;;7.67;;
417;SDS011;49;48.530;9.200;2022-12-07T13:39:10;13.23;;;8.27;;
417;SDS011;49;48.530;9.200;2022-12-07T13:41:44;10.10;;;7.10;;
417;SDS011;49;48.530;9.200;2022-12-07T13:44:17;9.80;;;7.07;;
417;SDS011;49;48.530;9.200;2022-12-07T13:46:47;10.63;;;6.87;;
417;SDS011;49;48.530;9.200;2022-12-07T13:49:20;10.67;;;7.63;;
417;SDS011;49;48.530;9.200;2022-12-07T13:51:49;13.23;;;8.07;;
417;SDS011;49;48.530;9.200;2022-12-07T13:54:16;10.50;;;6.77;;
417;SDS011;49;48.530;9.200;2022-12-07T13:56:46;11.07;;;5.93;;
417;SDS011;49;48.530;9.200;2022-12-07T13:59:19;9.53;;;7.33;;
417;SDS011;49;48.530;9.200;2022-12-07T14:01:49;8.50;;;6.63;;
417;SDS011;49;48.530;9.200;2022-12-07T14:04:17;11.50;;;7.13;;
417;SDS011;49;48.530;9.200;2022-12-07T14:06:47;11.10;;;6.87;;
417;SDS011;49;48.530;9.200;2022-12-07T14:09:18;11.87;;;8.77;;
417;SDS011;49;48.530;9.200;2022-12-07T14:11:47;13.13;;;7.70;;
417;SDS011;49;48.530;9.200;2022-12-07T14:14:16;13.23;;;6.90;;
417;SDS011;49;48.530;9.200;2022-12-07T14:16:59;13.20;;;7.80;;
417;SDS011;49;48.530;9.200;2022-12-07T14:19:41;11.57;;;7.93;;
417;SDS011;49;48.530;9.200;2022-12-07T14:25:16;10.23;;;8.13;;
417;SDS011;49;48.530;9.200;2022-12-07T14:27:49;9.87;;;7.20;;
417;SDS011;49;48.530;9.200;2022-12-07T14:30:22;10.03;;;6.63;;
417;SDS011;49;48.530;9.200;2022-12-07T14:32:52;13.80;;;8.03;;
417;SDS011;49;48.530;9.200;2022-12-07T14:35:21;15.07;;;8.53;;
417;SDS011;49;48.530;9.200;2022-12-07T14:37:50;9.77;;;7.33;;
417;SDS011;49;48.530;9.200;2022-12-07T14:40:19;14.63;;;8.17;;
417;SDS011;49;48.530;9.200;2022-12-07T14:42:49;12.87;;;8.17;;
417;SDS011;49;48.530;9.200;2022-12-07T14:45:20;12.50;;;8.03;;
417;SDS011;49;48.530;9.200;2022-12-07T14:47:52;11.33;;;7.80;;
417;SDS011;49;48.530;9.200;2022-12-07T14:50:20;18.77;;;8.40;;
417;SDS011;49;48.530;9.200;2022-12-07T14:52:48;20.07;;;7.93;;
417;SDS011;49;48.530;9.200;2022-12-07T14:55:27;11.03;;;7.33;;
417;SDS011;49;48.530;9.200;2022-12-07T14:57:55;9.97;;;7.17;;
417;SDS011;49;48.530;9.200;2022-12-07T15:00:25;11.10;;;7.57;;
417;SDS011;49;48.530;9.200;2022-12-07T15:02:53;8.17;;;6.70;;
417;SDS011;49;48.530;9.200;2022-12-07T15:05:21;11.10;;;7.80;;
417;SDS011;49;48.530;9.200;2022-12-07T15:07:49;19.20;;;8.10;;
417;SDS011;49;48.530;9.200;2022-12-07T15:10:18;15.70;;;7.50;;
417;SDS011;49;48.530;9.200;2022-12-07T15:12:47;14.60;;;8.87;;
417;SDS011;49;48.530;9.200;2022-12-07T15:15:14;21.30;;;8.00;;
417;SDS011;49;48.530;9.200;2022-12-07T15:17:43;15.17;;;7.77;;
417;SDS011;49;48.530;9.200;2022-12-07T15:20:11;11.90;;;8.30;;
417;SDS011;49;48.530;9.200;2022-12-07T15:22:41;18.83;;;8.87;;
417;SDS011;49;48.530;9.200;2022-12-07T15:25:09;23.43;;;10.17;;
417;SDS011;49;48.530;9.200;2022-12-07T15:27:41;31.23;;;14.50;;
417;SDS011;49;48.530;9.200;2022-12-07T15:30:08;19.53;;;10.47;;
417;SDS011;49;48.530;9.200;2022-12-07T15:32:35;19.07;;;10.27;;
417;SDS011;49;48.530;9.200;2022-12-07T15:35:04;28.43;;;16.30;;
417;SDS011;49;48.530;9.200;2022-12-07T15:37:31;22.57;;;13.30;;
417;SDS011;49;48.530;9.200;2022-12-07T15:39:58;17.63;;;10.47;;
417;SDS011;49;48.530;9.200;2022-12-07T15:42:25;30.17;;;12.10;;
417;SDS011;49;48.530;9.200;2022-12-07T15:44:52;13.00;;;8.20;;
417;SDS011;49;48.530;9.200;2022-12-07T15:47:34;9.30;;;6.90;;
417;SDS011;49;48.530;9.200;2022-12-07T15:50:04;19.50;;;8.10;;
417;SDS011;49;48.530;9.200;2022-12-07T15:52:33;12.70;;;8.13;;
417;SDS011;49;48.530;9.200;2022-12-07T15:55:00;12.87;;;7.70;;
417;SDS011;49;48.530;9.200;2022-12-07T15:57:28;10.77;;;7.03;;
417;SDS011;49;48.530;9.200;2022-12-07T15:59:55;8.77;;;7.10;;
417;SDS011;49;48.530;9.200;2022-12-07T16:02:22;13.37;;;7.60;;
417;SDS011;49;48.530;9.200;2022-12-07T16:04:49;10.97;;;7.57;;
417;SDS011;49;48.530;9.200;2022-12-07T16:07:18;12.80;;;8.33;;
417;SDS011;49;48.530;9.200;2022-12-07T16:09:45;18.23;;;10.43;;
417;SDS011;49;48.530;9.200;2022-12-07T16:12:12;13.67;;;9.10;;
417;SDS011;49;48.530;9.200;2022-12-07T16:14:40;10.40;;;7.87;;
417;SDS011;49;48.530;9.200;2022-12-07T16:17:07;10.60;;;7.47;;
417;SDS011;49;48.530;9.200;2022-12-07T16:19:36;11.70;;;7.93;;
417;SDS011;49;48.530;9.200;2022-12-07T16:22:03;15.23;;;8.97;;
417;SDS011;49;48.530;9.200;2022-12-07T16:24:32;10.30;;;8.50;;
417;SDS011;49;48.530;9.200;2022-12-07T16:26:59;14.43;;;8.70;;
417;SDS011;49;48.530;9.200;2022-12-07T16:29:26;14.73;;;10.40;;
417;SDS011;49;48.530;9.200;2022-12-07T16:31:53;18.53;;;11.60;;
417;SDS011;49;48.530;9.200;2022-12-07T16:34:20;16.63;;;10.43;;
417;SDS011;49;48.530;9.200;2022-12-07T16:36:49;15.13;;;8.73;;
417;SDS011;49;48.530;9.200;2022-12-07T16:39:16;13.30;;;8.70;;
417;SDS011;49;48.530;9.200;2022-12-07T16:41:45;8.93;;;6.97;;